sensor_id;sensor_type;location;lat;lon;timestamp;pressure;altitude;pressure_sealevel;temperature;humidity
39051;BME280;24805;55.852;37.644;2024-02-21T00:02:12;100193.66;;;-5.72;55.13
39051;BME280;24805;55.852;37.644;2024-02-21T00:07:14;100197.16;;;-5.73;55.60
39051;BME280;24805;55.852;37.644;2024-02-21T00:12:16;100185.38;;;-5.80;55.53
39051;BME280;24805;55.852;37.644;2024-02-21T00:17:19;100183.88;;;-5.85;55.93
39051;BME280;24805;55.852;37.644;2024-02-21T00:22:21;100179.78;;;-5.91;55.14
39051;BME280;24805;55.852;37.644;2024-02-21T00:27:23;100180.84;;;-5.97;55.39
39051;BME280;24805;55.852;37.644;2024-02-21T00:32:26;100150.81;;;-6.21;55.48
39051;BME280;24805;55.852;37.644;2024-02-21T00:37:28;100148.28;;;-6.22;55.64
39051;BME280;24805;55.852;37.644;2024-02-21T00:42:30;100170.84;;;-6.04;56.20
39051;BME280;24805;55.852;37.644;2024-02-21T00:47:33;100163.31;;;-6.10;56.53
39051;BME280;24805;55.852;37.644;2024-02-21T00:52:35;100154.03;;;-6.16;55.62
39051;BME280;24805;55.852;37.644;2024-02-21T00:57:37;100151.44;;;-6.16;56.42
39051;BME280;24805;55.852;37.644;2024-02-21T01:02:40;100147.41;;;-6.00;55.57
39051;BME280;24805;55.852;37.644;2024-02-21T01:07:42;100140.47;;;-5.99;55.96
39051;BME280;24805;55.852;37.644;2024-02-21T01:12:44;100138.50;;;-5.93;57.26
39051;BME280;24805;55.852;37.644;2024-02-21T01:17:47;100111.66;;;-5.88;56.40
39051;BME280;24805;55.852;37.644;2024-02-21T01:22:49;100124.53;;;-5.67;56.56
39051;BME280;24805;55.852;37.644;2024-02-21T01:27:52;100118.88;;;-5.55;56.17
39051;BME280;24805;55.852;37.644;2024-02-21T01:32:54;100122.84;;;-5.46;55.39
39051;BME280;24805;55.852;37.644;2024-02-21T01:37:56;100119.22;;;-5.42;56.20
39051;BME280;24805;55.852;37.644;2024-02-21T01:42:59;100117.53;;;-5.43;55.59
39051;BME280;24805;55.852;37.644;2024-02-21T01:48:01;100114.06;;;-5.42;56.27
39051;BME280;24805;55.852;37.644;2024-02-21T01:53:04;100106.81;;;-5.34;56.25
39051;BME280;24805;55.852;37.644;2024-02-21T01:58:07;100102.59;;;-5.16;55.18
39051;BME280;24805;55.852;37.644;2024-02-21T02:03:13;100103.06;;;-5.06;55.89
39051;BME280;24805;55.852;37.644;2024-02-21T02:08:19;100101.53;;;-5.10;55.56
39051;BME280;24805;55.852;37.644;2024-02-21T02:13:24;100098.75;;;-5.06;55.85
39051;BME280;24805;55.852;37.644;2024-02-21T02:18:26;100098.41;;;-4.98;55.59
39051;BME280;24805;55.852;37.644;2024-02-21T02:23:29;100091.34;;;-4.95;55.04
39051;BME280;24805;55.852;37.644;2024-02-21T02:28:33;100097.09;;;-4.88;55.43
39051;BME280;24805;55.852;37.644;2024-02-21T02:33:35;100102.66;;;-4.77;55.42
39051;BME280;24805;55.852;37.644;2024-02-21T02:38:38;100092.44;;;-4.80;55.52
39051;BME280;24805;55.852;37.644;2024-02-21T02:43:40;100093.25;;;-4.79;55.98
39051;BME280;24805;55.852;37.644;2024-02-21T02:48:42;100083.91;;;-4.82;55.62
39051;BME280;24805;55.852;37.644;2024-02-21T02:53:45;100105.16;;;-4.75;55.11
39051;BME280;24805;55.852;37.644;2024-02-21T02:58:47;100091.25;;;-4.73;55.30
39051;BME280;24805;55.852;37.644;2024-02-21T03:03:49;100090.94;;;-4.65;54.90
39051;BME280;24805;55.852;37.644;2024-02-21T03:08:52;100093.59;;;-4.67;55.10
39051;BME280;24805;55.852;37.644;2024-02-21T03:13:56;100095.25;;;-4.66;55.68
39051;BME280;24805;55.852;37.644;2024-02-21T03:18:59;100099.41;;;-4.62;55.29
39051;BME280;24805;55.852;37.644;2024-02-21T03:24:01;100092.06;;;-4.52;55.85
39051;BME280;24805;55.852;37.644;2024-02-21T03:29:03;100072.94;;;-4.68;55.26
39051;BME280;24805;55.852;37.644;2024-02-21T03:34:06;100082.59;;;-4.53;55.57
39051;BME280;24805;55.852;37.644;2024-02-21T03:39:08;100088.34;;;-4.46;55.06
39051;BME280;24805;55.852;37.644;2024-02-21T03:44:11;100078.78;;;-4.44;56.14
39051;BME280;24805;55.852;37.644;2024-02-21T03:49:13;100096.59;;;-4.38;55.62
39051;BME280;24805;55.852;37.644;2024-02-21T03:54:15;100081.91;;;-4.38;55.07
39051;BME280;24805;55.852;37.644;2024-02-21T03:59:17;100087.06;;;-4.38;55.62
39051;BME280;24805;55.852;37.644;2024-02-21T04:04:20;100085.97;;;-4.32;55.29
39051;BME280;24805;55.852;37.644;2024-02-21T04:09:23;100082.34;;;-4.28;55.64
39051;BME280;24805;55.852;37.644;2024-02-21T04:14:25;100089.75;;;-4.21;55.18
39051;BME280;24805;55.852;37.644;2024-02-21T04:19:27;100091.66;;;-4.24;55.58
39051;BME280;24805;55.852;37.644;2024-02-21T04:24:30;100081.16;;;-4.21;55.28
39051;BME280;24805;55.852;37.644;2024-02-21T04:29:32;100093.72;;;-4.13;55.09
39051;BME280;24805;55.852;37.644;2024-02-21T04:34:35;100092.75;;;-4.11;55.47
39051;BME280;24805;55.852;37.644;2024-02-21T04:39:38;100096.88;;;-4.07;55.08
39051;BME280;24805;55.852;37.644;2024-02-21T04:44:40;100098.56;;;-4.06;55.48
39051;BME280;24805;55.852;37.644;2024-02-21T04:49:42;100092.63;;;-4.08;55.82
39051;BME280;24805;55.852;37.644;2024-02-21T04:54:45;100091.50;;;-4.02;55.28
39051;BME280;24805;55.852;37.644;2024-02-21T04:59:47;100092.94;;;-3.97;55.99
39051;BME280;24805;55.852;37.644;2024-02-21T05:04:50;100085.72;;;-3.90;55.56
39051;BME280;24805;55.852;37.644;2024-02-21T05:09:53;100087.53;;;-3.92;55.40
39051;BME280;24805;55.852;37.644;2024-02-21T05:14:55;100098.47;;;-3.86;55.63
39051;BME280;24805;55.852;37.644;2024-02-21T05:19:57;100095.44;;;-3.76;55.45
39051;BME280;24805;55.852;37.644;2024-02-21T05:25:00;100089.13;;;-3.71;55.54
39051;BME280;24805;55.852;37.644;2024-02-21T05:30:03;100094.78;;;-3.63;55.21
39051;BME280;24805;55.852;37.644;2024-02-21T05:35:06;100094.63;;;-3.60;55.41
39051;BME280;24805;55.852;37.644;2024-02-21T05:40:09;100092.78;;;-3.58;55.68
39051;BME280;24805;55.852;37.644;2024-02-21T05:45:14;100083.25;;;-3.57;55.79
39051;BME280;24805;55.852;37.644;2024-02-21T05:50:17;100086.47;;;-3.52;55.43
39051;BME280;24805;55.852;37.644;2024-02-21T05:55:20;100082.81;;;-3.48;55.17
39051;BME280;24805;55.852;37.644;2024-02-21T06:00:22;100091.97;;;-3.41;55.95
39051;BME280;24805;55.852;37.644;2024-02-21T06:05:24;100083.03;;;-3.35;55.58
39051;BME280;24805;55.852;37.644;2024-02-21T06:10:27;100087.22;;;-3.33;55.44
39051;BME280;24805;55.852;37.644;2024-02-21T06:15:29;100104.63;;;-3.18;54.99
39051;BME280;24805;55.852;37.644;2024-02-21T06:20:31;100082.88;;;-3.15;55.39
39051;BME280;24805;55.852;37.644;2024-02-21T06:25:34;100090.38;;;-3.09;55.02
39051;BME280;24805;55.852;37.644;2024-02-21T06:30:36;100089.72;;;-2.97;55.02
39051;BME280;24805;55.852;37.644;2024-02-21T06:35:39;100092.16;;;-2.94;55.34
39051;BME280;24805;55.852;37.644;2024-02-21T06:40:43;100085.44;;;-2.81;54.28
39051;BME280;24805;55.852;37.644;2024-02-21T06:45:51;100093.47;;;-2.85;54.75
39051;BME280;24805;55.852;37.644;2024-02-21T06:50:53;100075.06;;;-2.81;55.38
39051;BME280;24805;55.852;37.644;2024-02-21T06:55:55;100077.69;;;-2.65;55.29
39051;BME280;24805;55.852;37.644;2024-02-21T07:00:58;100078.38;;;-2.46;54.54
39051;BME280;24805;55.852;37.644;2024-02-21T07:06:00;100082.75;;;-2.30;54.61
39051;BME280;24805;55.852;37.644;2024-02-21T07:11:03;100069.53;;;-2.26;53.97
39051;BME280;24805;55.852;37.644;2024-02-21T07:16:06;100069.16;;;-2.35;54.76
39051;BME280;24805;55.852;37.644;2024-02-21T07:21:09;100070.28;;;-2.24;54.59
39051;BME280;24805;55.852;37.644;2024-02-21T07:26:11;100065.66;;;-2.19;53.76
39051;BME280;24805;55.852;37.644;2024-02-21T07:31:14;100082.91;;;-2.18;54.48
39051;BME280;24805;55.852;37.644;2024-02-21T07:36:28;100054.50;;;-2.05;53.94
39051;BME280;24805;55.852;37.644;2024-02-21T07:41:32;100051.53;;;-1.99;54.27
39051;BME280;24805;55.852;37.644;2024-02-21T07:46:35;100064.59;;;-1.69;53.82
39051;BME280;24805;55.852;37.644;2024-02-21T07:51:38;100063.50;;;-1.65;52.97
39051;BME280;24805;55.852;37.644;2024-02-21T07:56:40;100052.72;;;-1.59;53.12
39051;BME280;24805;55.852;37.644;2024-02-21T08:01:42;100057.72;;;-0.96;52.40
39051;BME280;24805;55.852;37.644;2024-02-21T08:06:51;100064.41;;;-0.35;51.79
39051;BME280;24805;55.852;37.644;2024-02-21T08:11:55;100049.06;;;1.06;49.77
39051;BME280;24805;55.852;37.644;2024-02-21T08:16:57;100038.34;;;3.91;44.88
39051;BME280;24805;55.852;37.644;2024-02-21T08:22:01;100024.81;;;4.91;41.34
39051;BME280;24805;55.852;37.644;2024-02-21T08:27:05;100032.16;;;5.18;40.64
39051;BME280;24805;55.852;37.644;2024-02-21T08:32:26;100042.44;;;5.61;39.27
39051;BME280;24805;55.852;37.644;2024-02-21T08:37:28;100045.81;;;5.73;37.91
39051;BME280;24805;55.852;37.644;2024-02-21T08:42:31;100055.00;;;5.48;38.00
39051;BME280;24805;55.852;37.644;2024-02-21T08:47:35;100040.38;;;5.65;38.03
39051;BME280;24805;55.852;37.644;2024-02-21T08:52:38;100041.59;;;5.61;38.23
39051;BME280;24805;55.852;37.644;2024-02-21T08:57:40;100030.03;;;6.51;36.24
39051;BME280;24805;55.852;37.644;2024-02-21T09:02:42;100040.41;;;6.91;35.74
39051;BME280;24805;55.852;37.644;2024-02-21T09:07:45;100017.53;;;6.25;35.42
39051;BME280;24805;55.852;37.644;2024-02-21T09:12:48;100032.22;;;5.98;36.23
39051;BME280;24805;55.852;37.644;2024-02-21T09:17:50;100036.03;;;4.72;37.26
39051;BME280;24805;55.852;37.644;2024-02-21T09:22:52;100020.53;;;3.18;39.95
39051;BME280;24805;55.852;37.644;2024-02-21T09:27:55;100022.63;;;2.44;41.45
39051;BME280;24805;55.852;37.644;2024-02-21T09:32:57;100023.41;;;1.86;42.19
39051;BME280;24805;55.852;37.644;2024-02-21T09:38:02;100016.56;;;1.35;43.37
39051;BME280;24805;55.852;37.644;2024-02-21T09:43:05;100005.59;;;1.18;43.96
39051;BME280;24805;55.852;37.644;2024-02-21T09:49:15;100009.16;;;1.17;44.20
39051;BME280;24805;55.852;37.644;2024-02-21T09:53:56;99999.84;;;1.13;44.68
39051;BME280;24805;55.852;37.644;2024-02-21T09:59:16;100010.97;;;1.40;44.64
39051;BME280;24805;55.852;37.644;2024-02-21T10:04:20;100007.94;;;1.46;44.54
39051;BME280;24805;55.852;37.644;2024-02-21T10:09:23;99991.63;;;1.43;44.56
39051;BME280;24805;55.852;37.644;2024-02-21T10:14:26;100014.22;;;1.44;44.42
39051;BME280;24805;55.852;37.644;2024-02-21T10:19:28;100016.56;;;1.10;44.70
39051;BME280;24805;55.852;37.644;2024-02-21T10:24:31;100009.38;;;0.76;45.62
39051;BME280;24805;55.852;37.644;2024-02-21T10:29:38;99970.06;;;0.64;45.22
39051;BME280;24805;55.852;37.644;2024-02-21T10:34:41;99998.88;;;0.38;46.61
39051;BME280;24805;55.852;37.644;2024-02-21T10:39:45;99994.16;;;0.30;46.02
39051;BME280;24805;55.852;37.644;2024-02-21T10:44:50;99981.34;;;0.40;47.00
39051;BME280;24805;55.852;37.644;2024-02-21T10:50:02;99990.97;;;0.77;46.52
39051;BME280;24805;55.852;37.644;2024-02-21T10:55:10;99981.34;;;0.65;46.39
39051;BME280;24805;55.852;37.644;2024-02-21T11:00:18;99983.03;;;0.53;46.18
39051;BME280;24805;55.852;37.644;2024-02-21T11:05:21;99988.09;;;0.42;46.71
39051;BME280;24805;55.852;37.644;2024-02-21T11:10:24;99990.34;;;0.21;46.96
39051;BME280;24805;55.852;37.644;2024-02-21T11:15:27;100000.31;;;0.02;47.42
39051;BME280;24805;55.852;37.644;2024-02-21T11:20:34;99999.16;;;-0.07;47.51
39051;BME280;24805;55.852;37.644;2024-02-21T11:25:37;99962.34;;;-0.29;48.52
39051;BME280;24805;55.852;37.644;2024-02-21T11:30:40;99967.75;;;-0.32;47.79
39051;BME280;24805;55.852;37.644;2024-02-21T11:35:43;99956.53;;;-0.47;48.22
39051;BME280;24805;55.852;37.644;2024-02-21T11:40:46;99977.56;;;-0.50;48.81
39051;BME280;24805;55.852;37.644;2024-02-21T11:45:50;99951.97;;;-0.57;49.04
39051;BME280;24805;55.852;37.644;2024-02-21T11:50:56;99946.59;;;-0.54;49.10
39051;BME280;24805;55.852;37.644;2024-02-21T11:55:58;99988.38;;;-0.56;48.84
39051;BME280;24805;55.852;37.644;2024-02-21T12:01:01;99961.56;;;-0.58;49.29
39051;BME280;24805;55.852;37.644;2024-02-21T12:06:07;99955.00;;;-0.63;48.78
39051;BME280;24805;55.852;37.644;2024-02-21T12:11:24;99958.16;;;-0.73;49.46
39051;BME280;24805;55.852;37.644;2024-02-21T12:16:27;99945.06;;;-0.85;49.98
39051;BME280;24805;55.852;37.644;2024-02-21T12:21:33;99936.22;;;-0.97;50.15
39051;BME280;24805;55.852;37.644;2024-02-21T12:26:38;99944.88;;;-0.96;50.43
39051;BME280;24805;55.852;37.644;2024-02-21T12:31:41;99935.69;;;-1.02;50.70
39051;BME280;24805;55.852;37.644;2024-02-21T12:36:46;99923.88;;;-1.08;50.73
39051;BME280;24805;55.852;37.644;2024-02-21T12:41:49;99922.03;;;-1.06;51.00
39051;BME280;24805;55.852;37.644;2024-02-21T12:46:52;99936.16;;;-1.10;51.23
39051;BME280;24805;55.852;37.644;2024-02-21T12:51:56;99943.13;;;-1.10;50.85
39051;BME280;24805;55.852;37.644;2024-02-21T12:56:59;99923.50;;;-1.16;51.02
39051;BME280;24805;55.852;37.644;2024-02-21T13:02:05;99930.94;;;-1.10;51.50
39051;BME280;24805;55.852;37.644;2024-02-21T13:07:08;99966.19;;;-1.18;51.24
39051;BME280;24805;55.852;37.644;2024-02-21T13:12:10;99909.38;;;-1.26;51.66
39051;BME280;24805;55.852;37.644;2024-02-21T13:17:14;99929.66;;;-1.31;51.85
39051;BME280;24805;55.852;37.644;2024-02-21T13:22:18;99928.44;;;-1.25;51.85
39051;BME280;24805;55.852;37.644;2024-02-21T13:27:24;99933.00;;;-1.29;51.62
39051;BME280;24805;55.852;37.644;2024-02-21T13:32:26;99923.50;;;-1.30;52.21
39051;BME280;24805;55.852;37.644;2024-02-21T13:37:29;99945.75;;;-1.24;52.06
39051;BME280;24805;55.852;37.644;2024-02-21T13:42:31;99938.47;;;-1.19;51.85
39051;BME280;24805;55.852;37.644;2024-02-21T13:47:34;99932.16;;;-1.29;51.80
39051;BME280;24805;55.852;37.644;2024-02-21T13:52:38;99933.00;;;-1.29;51.92
39051;BME280;24805;55.852;37.644;2024-02-21T13:57:40;99940.25;;;-1.34;51.98
39051;BME280;24805;55.852;37.644;2024-02-21T14:02:43;99932.78;;;-1.54;52.10
39051;BME280;24805;55.852;37.644;2024-02-21T14:07:46;99954.91;;;-1.47;52.36
39051;BME280;24805;55.852;37.644;2024-02-21T14:12:48;99952.00;;;-1.57;52.49
39051;BME280;24805;55.852;37.644;2024-02-21T14:17:51;99955.09;;;-1.64;53.02
39051;BME280;24805;55.852;37.644;2024-02-21T14:22:53;99929.91;;;-1.64;53.48
39051;BME280;24805;55.852;37.644;2024-02-21T14:27:56;99941.16;;;-1.63;53.26
39051;BME280;24805;55.852;37.644;2024-02-21T14:32:58;99933.44;;;-1.65;53.54
39051;BME280;24805;55.852;37.644;2024-02-21T14:38:01;99930.00;;;-1.65;53.99
39051;BME280;24805;55.852;37.644;2024-02-21T14:43:03;99930.75;;;-1.63;53.30
39051;BME280;24805;55.852;37.644;2024-02-21T14:48:24;99938.38;;;-1.60;53.34
39051;BME280;24805;55.852;37.644;2024-02-21T14:53:29;99914.81;;;-1.73;53.68
39051;BME280;24805;55.852;37.644;2024-02-21T14:58:31;99909.56;;;-2.01;54.08
39051;BME280;24805;55.852;37.644;2024-02-21T15:03:33;99945.19;;;-1.88;54.06
39051;BME280;24805;55.852;37.644;2024-02-21T15:08:36;99938.69;;;-1.81;53.69
39051;BME280;24805;55.852;37.644;2024-02-21T15:13:38;99930.19;;;-1.98;54.39
39051;BME280;24805;55.852;37.644;2024-02-21T15:18:41;99943.75;;;-1.93;54.09
39051;BME280;24805;55.852;37.644;2024-02-21T15:23:43;99943.66;;;-1.92;54.62
39051;BME280;24805;55.852;37.644;2024-02-21T15:34:07;99933.97;;;-1.60;52.88
39051;BME280;24805;55.852;37.644;2024-02-21T15:39:09;99957.34;;;-1.88;54.30
39051;BME280;24805;55.852;37.644;2024-02-21T15:44:12;99955.66;;;-1.89;54.47
39051;BME280;24805;55.852;37.644;2024-02-21T15:49:15;99949.78;;;-1.93;54.19
39051;BME280;24805;55.852;37.644;2024-02-21T15:54:17;99938.66;;;-1.95;54.07
39051;BME280;24805;55.852;37.644;2024-02-21T15:59:25;99950.59;;;-2.06;54.62
39051;BME280;24805;55.852;37.644;2024-02-21T16:04:27;99944.81;;;-2.12;54.74
39051;BME280;24805;55.852;37.644;2024-02-21T16:09:30;99922.09;;;-2.08;54.76
39051;BME280;24805;55.852;37.644;2024-02-21T16:14:34;99933.84;;;-2.17;55.29
39051;BME280;24805;55.852;37.644;2024-02-21T16:19:37;99929.13;;;-2.10;55.32
39051;BME280;24805;55.852;37.644;2024-02-21T16:24:40;99926.88;;;-2.16;55.29
39051;BME280;24805;55.852;37.644;2024-02-21T16:29:42;99925.59;;;-2.09;55.16
39051;BME280;24805;55.852;37.644;2024-02-21T16:34:44;99942.63;;;-2.19;55.21
39051;BME280;24805;55.852;37.644;2024-02-21T16:39:47;99927.25;;;-2.22;55.52
39051;BME280;24805;55.852;37.644;2024-02-21T16:44:49;99903.84;;;-2.22;55.25
39051;BME280;24805;55.852;37.644;2024-02-21T16:49:52;99914.50;;;-2.27;55.80
39051;BME280;24805;55.852;37.644;2024-02-21T16:54:56;99932.94;;;-2.31;55.79
39051;BME280;24805;55.852;37.644;2024-02-21T16:59:59;99909.59;;;-2.47;56.20
39051;BME280;24805;55.852;37.644;2024-02-21T17:05:02;99911.44;;;-2.49;56.58
39051;BME280;24805;55.852;37.644;2024-02-21T17:10:05;99916.47;;;-2.46;56.58
39051;BME280;24805;55.852;37.644;2024-02-21T17:15:08;99909.81;;;-2.36;56.81
39051;BME280;24805;55.852;37.644;2024-02-21T17:20:10;99911.75;;;-2.39;56.67
39051;BME280;24805;55.852;37.644;2024-02-21T17:25:13;99912.84;;;-2.44;56.51
39051;BME280;24805;55.852;37.644;2024-02-21T17:30:16;99902.28;;;-2.40;56.47
39051;BME280;24805;55.852;37.644;2024-02-21T17:35:18;99907.66;;;-2.44;56.77
39051;BME280;24805;55.852;37.644;2024-02-21T17:40:20;99894.50;;;-2.40;56.74
39051;BME280;24805;55.852;37.644;2024-02-21T17:45:23;99891.56;;;-2.50;57.16
39051;BME280;24805;55.852;37.644;2024-02-21T17:50:25;99910.19;;;-2.42;57.30
39051;BME280;24805;55.852;37.644;2024-02-21T17:55:29;99885.66;;;-2.38;56.85
39051;BME280;24805;55.852;37.644;2024-02-21T18:00:31;99894.09;;;-2.49;57.05
39051;BME280;24805;55.852;37.644;2024-02-21T18:05:34;99894.25;;;-2.52;56.92
39051;BME280;24805;55.852;37.644;2024-02-21T18:10:36;99900.63;;;-2.41;57.28
39051;BME280;24805;55.852;37.644;2024-02-21T18:15:40;99888.06;;;-2.49;57.35
39051;BME280;24805;55.852;37.644;2024-02-21T18:20:42;99886.47;;;-2.52;57.66
39051;BME280;24805;55.852;37.644;2024-02-21T18:25:44;99868.03;;;-2.47;57.25
39051;BME280;24805;55.852;37.644;2024-02-21T18:30:50;99873.22;;;-2.47;57.25
39051;BME280;24805;55.852;37.644;2024-02-21T18:35:54;99864.59;;;-2.48;57.82
39051;BME280;24805;55.852;37.644;2024-02-21T18:40:56;99854.03;;;-2.45;56.96
39051;BME280;24805;55.852;37.644;2024-02-21T18:45:58;99868.97;;;-2.34;57.42
39051;BME280;24805;55.852;37.644;2024-02-21T18:51:00;99885.66;;;-2.38;57.30
39051;BME280;24805;55.852;37.644;2024-02-21T18:56:04;99868.84;;;-2.47;57.42
39051;BME280;24805;55.852;37.644;2024-02-21T19:01:10;99852.59;;;-2.50;57.54
39051;BME280;24805;55.852;37.644;2024-02-21T19:06:12;99841.44;;;-2.52;58.15
39051;BME280;24805;55.852;37.644;2024-02-21T19:11:17;99868.78;;;-2.45;57.71
39051;BME280;24805;55.852;37.644;2024-02-21T19:16:19;99855.03;;;-2.47;58.00
39051;BME280;24805;55.852;37.644;2024-02-21T19:21:21;99864.88;;;-2.38;57.62
39051;BME280;24805;55.852;37.644;2024-02-21T19:26:24;99850.03;;;-2.36;57.88
39051;BME280;24805;55.852;37.644;2024-02-21T19:31:26;99820.25;;;-2.45;57.71
39051;BME280;24805;55.852;37.644;2024-02-21T19:36:29;99850.97;;;-2.37;57.87
39051;BME280;24805;55.852;37.644;2024-02-21T19:41:32;99848.56;;;-2.40;57.40
39051;BME280;24805;55.852;37.644;2024-02-21T19:46:34;99861.16;;;-2.48;58.65
39051;BME280;24805;55.852;37.644;2024-02-21T19:51:40;99861.41;;;-2.53;58.47
39051;BME280;24805;55.852;37.644;2024-02-21T19:56:42;99840.69;;;-2.54;58.78
39051;BME280;24805;55.852;37.644;2024-02-21T20:01:44;99859.63;;;-2.52;58.90
39051;BME280;24805;55.852;37.644;2024-02-21T20:06:47;99841.78;;;-2.58;58.82
39051;BME280;24805;55.852;37.644;2024-02-21T20:11:49;99814.50;;;-2.65;58.48
39051;BME280;24805;55.852;37.644;2024-02-21T20:16:52;99852.69;;;-2.52;58.56
39051;BME280;24805;55.852;37.644;2024-02-21T20:21:54;99834.41;;;-2.50;58.96
39051;BME280;24805;55.852;37.644;2024-02-21T20:26:57;99837.75;;;-2.48;59.59
39051;BME280;24805;55.852;37.644;2024-02-21T20:31:59;99805.63;;;-2.61;59.34
39051;BME280;24805;55.852;37.644;2024-02-21T20:37:02;99828.81;;;-2.58;59.35
39051;BME280;24805;55.852;37.644;2024-02-21T20:42:08;99800.84;;;-2.69;60.06
39051;BME280;24805;55.852;37.644;2024-02-21T20:47:29;99825.13;;;-2.54;59.28
39051;BME280;24805;55.852;37.644;2024-02-21T20:52:32;99803.88;;;-2.61;59.27
39051;BME280;24805;55.852;37.644;2024-02-21T20:57:34;99808.88;;;-2.58;59.92
39051;BME280;24805;55.852;37.644;2024-02-21T21:02:39;99792.19;;;-2.54;59.26
39051;BME280;24805;55.852;37.644;2024-02-21T21:07:42;99798.47;;;-2.58;59.83
39051;BME280;24805;55.852;37.644;2024-02-21T21:12:44;99807.94;;;-2.57;60.67
39051;BME280;24805;55.852;37.644;2024-02-21T21:17:49;99809.44;;;-2.53;60.29
39051;BME280;24805;55.852;37.644;2024-02-21T21:22:52;99788.66;;;-2.53;60.80
39051;BME280;24805;55.852;37.644;2024-02-21T21:27:54;99790.34;;;-2.52;61.00
39051;BME280;24805;55.852;37.644;2024-02-21T21:32:57;99780.94;;;-2.54;61.64
39051;BME280;24805;55.852;37.644;2024-02-21T21:38:02;99776.97;;;-2.60;61.28
39051;BME280;24805;55.852;37.644;2024-02-21T21:43:07;99804.03;;;-2.34;61.58
39051;BME280;24805;55.852;37.644;2024-02-21T21:48:11;99793.44;;;-2.31;60.70
39051;BME280;24805;55.852;37.644;2024-02-21T21:53:14;99797.63;;;-2.28;60.17
39051;BME280;24805;55.852;37.644;2024-02-21T21:58:16;99804.41;;;-2.26;60.10
39051;BME280;24805;55.852;37.644;2024-02-21T22:03:19;99797.81;;;-2.31;60.38
39051;BME280;24805;55.852;37.644;2024-02-21T22:08:21;99787.69;;;-2.36;60.54
39051;BME280;24805;55.852;37.644;2024-02-21T22:13:24;99772.66;;;-2.45;60.52
39051;BME280;24805;55.852;37.644;2024-02-21T22:18:26;99780.28;;;-2.28;60.39
39051;BME280;24805;55.852;37.644;2024-02-21T22:23:28;99782.31;;;-2.33;60.45
39051;BME280;24805;55.852;37.644;2024-02-21T22:28:31;99786.50;;;-2.30;60.97
39051;BME280;24805;55.852;37.644;2024-02-21T22:33:34;99777.19;;;-2.34;61.15
39051;BME280;24805;55.852;37.644;2024-02-21T22:38:37;99774.84;;;-2.39;61.80
39051;BME280;24805;55.852;37.644;2024-02-21T22:43:39;99777.28;;;-2.36;61.63
39051;BME280;24805;55.852;37.644;2024-02-21T22:48:41;99761.69;;;-2.36;62.02
39051;BME280;24805;55.852;37.644;2024-02-21T22:53:44;99768.69;;;-2.22;61.26
39051;BME280;24805;55.852;37.644;2024-02-21T22:58:46;99762.84;;;-2.12;60.85
39051;BME280;24805;55.852;37.644;2024-02-21T23:03:49;99758.31;;;-2.22;61.40
39051;BME280;24805;55.852;37.644;2024-02-21T23:08:51;99757.81;;;-2.29;61.33
39051;BME280;24805;55.852;37.644;2024-02-21T23:13:55;99752.44;;;-2.26;62.14
39051;BME280;24805;55.852;37.644;2024-02-21T23:18:59;99749.66;;;-2.23;61.74
39051;BME280;24805;55.852;37.644;2024-02-21T23:24:01;99741.97;;;-2.24;61.25
39051;BME280;24805;55.852;37.644;2024-02-21T23:29:03;99742.78;;;-2.24;61.31
39051;BME280;24805;55.852;37.644;2024-02-21T23:34:06;99732.50;;;-2.25;61.60
39051;BME280;24805;55.852;37.644;2024-02-21T23:39:08;99729.41;;;-2.18;61.89
39051;BME280;24805;55.852;37.644;2024-02-21T23:44:11;99735.25;;;-2.14;61.64
39051;BME280;24805;55.852;37.644;2024-02-21T23:49:13;99735.53;;;-2.19;61.48
39051;BME280;24805;55.852;37.644;2024-02-21T23:54:17;99735.09;;;-2.11;61.83
39051;BME280;24805;55.852;37.644;2024-02-21T23:59:19;99726.38;;;-2.10;60.95
